createdAt,value
2022-07-26T00:01:09.292Z,98305.22
2022-07-26T00:04:03.137Z,98297.34
2022-07-26T00:06:50.393Z,98308.06
2022-07-26T00:09:48.220Z,98313.03
2022-07-26T00:12:35.910Z,98323.19
2022-07-26T00:15:29.118Z,98336.66
2022-07-26T00:18:17.133Z,98335.78
2022-07-26T00:21:11.661Z,98344.66
2022-07-26T00:24:05.257Z,98343.59
2022-07-26T00:26:59.102Z,98358.28
2022-07-26T00:29:52.275Z,98357.69
2022-07-26T00:32:39.373Z,98361.81
2022-07-26T00:35:33.206Z,98374.84
2022-07-26T00:38:20.346Z,98380.66
2022-07-26T00:41:15.101Z,98383.13
2022-07-26T00:44:15.112Z,98386.25
2022-07-26T00:47:09.109Z,98397.41
2022-07-26T00:50:02.110Z,98400.31
2022-07-26T00:52:50.429Z,98403.47
2022-07-26T00:55:44.092Z,98406.31
2022-07-26T00:58:37.106Z,98404.88
2022-07-26T01:01:24.334Z,98411.31
2022-07-26T01:04:18.126Z,98403.84
2022-07-26T01:07:14.650Z,98399.13
2022-07-26T01:10:11.147Z,98399.97
2022-07-26T01:12:58.145Z,98392.56
2022-07-26T01:15:52.147Z,98397.13
2022-07-26T01:18:39.149Z,98415.81
2022-07-26T01:21:39.295Z,98409.19
2022-07-26T01:24:26.438Z,98414.13
2022-07-26T01:27:20.125Z,98424.50
2022-07-26T01:30:10.771Z,98422.66
2022-07-26T01:33:06.384Z,98434.22
2022-07-26T01:35:54.444Z,98427.81
2022-07-26T01:38:49.109Z,98427.81
2022-07-26T01:41:49.119Z,98437.78
2022-07-26T01:44:49.107Z,98432.00
2022-07-26T01:47:36.207Z,98427.63
2022-07-26T01:50:30.127Z,98418.72
2022-07-26T01:53:17.153Z,98403.63
2022-07-26T01:56:11.129Z,98402.59
2022-07-26T01:58:58.250Z,98403.47
2022-07-26T02:01:53.177Z,98395.97
2022-07-26T02:04:58.786Z,98399.31
2022-07-26T02:07:53.096Z,98392.72
2022-07-26T02:11:05.107Z,98384.00
2022-07-26T02:13:59.084Z,98382.75
2022-07-26T02:16:52.329Z,98370.34
2022-07-26T02:19:46.093Z,98364.56
2022-07-26T02:22:40.096Z,98369.31
2022-07-26T02:25:27.656Z,98360.00
2022-07-26T02:28:22.280Z,98360.41
2022-07-26T02:31:09.340Z,98362.50
2022-07-26T02:34:05.277Z,98359.13
2022-07-26T02:36:59.168Z,98357.84
2022-07-26T02:39:53.084Z,98348.97
2022-07-26T02:43:00.111Z,98356.22
2022-07-26T02:46:01.200Z,98341.59
2022-07-26T02:48:57.150Z,98345.91
2022-07-26T02:51:44.457Z,98341.94
2022-07-26T02:54:38.102Z,98342.78
2022-07-26T02:57:25.092Z,98351.50
2022-07-26T03:00:20.247Z,98339.25
2022-07-26T03:03:07.338Z,98317.81
2022-07-26T03:06:01.073Z,98327.88
2022-07-26T03:08:55.121Z,98344.56
2022-07-26T03:11:49.094Z,98346.59
2022-07-26T03:14:42.103Z,98349.91
2022-07-26T03:17:36.078Z,98334.81
2022-07-26T03:20:23.246Z,98324.28
2022-07-26T03:23:17.473Z,98315.47
2022-07-26T03:26:04.666Z,98326.19
2022-07-26T03:28:58.073Z,98317.28
2022-07-26T03:31:52.083Z,98332.38
2022-07-26T03:34:46.112Z,98331.75
2022-07-26T03:37:44.856Z,98320.16
2022-07-26T03:40:40.073Z,98322.22
2022-07-26T03:43:40.100Z,98322.81
2022-07-26T03:46:34.228Z,98312.03
2022-07-26T03:49:28.291Z,98309.44
2022-07-26T03:52:15.289Z,98302.00
2022-07-26T03:55:29.087Z,98299.75
2022-07-26T03:58:17.153Z,98296.06
2022-07-26T04:01:11.112Z,98315.66
2022-07-26T04:04:05.159Z,98301.56
2022-07-26T04:07:03.848Z,98314.03
2022-07-26T04:09:50.922Z,98311.69
2022-07-26T04:12:44.237Z,98305.16
2022-07-26T04:15:31.258Z,98320.63
2022-07-26T04:18:25.449Z,98305.75
2022-07-26T04:21:12.540Z,98310.13
2022-07-26T04:24:06.350Z,98308.06
2022-07-26T04:27:00.075Z,98297.09
2022-07-26T04:29:47.046Z,98312.81
2022-07-26T04:32:40.259Z,98310.75
2022-07-26T04:35:27.326Z,98308.22
2022-07-26T04:38:21.091Z,98320.59
2022-07-26T04:41:15.084Z,98310.81
2022-07-26T04:44:08.706Z,98308.34
2022-07-26T04:47:02.061Z,98301.91
2022-07-26T04:49:49.347Z,98312.03
2022-07-26T04:52:43.061Z,98315.97
2022-07-26T04:55:30.634Z,98325.44
2022-07-26T04:58:24.076Z,98308.44
2022-07-26T05:01:18.148Z,98305.16
2022-07-26T05:04:05.333Z,98311.34
2022-07-26T05:06:59.784Z,98316.16
2022-07-26T05:09:53.072Z,98319.84
2022-07-26T05:12:40.123Z,98317.13
2022-07-26T05:15:35.354Z,98312.19
2022-07-26T05:18:29.311Z,98313.38
2022-07-26T05:21:25.055Z,98315.13
2022-07-26T05:24:12.379Z,98318.78
2022-07-26T05:27:06.071Z,98318.16
2022-07-26T05:30:00.120Z,98328.84
2022-07-26T05:32:54.049Z,98329.84
2022-07-26T05:35:47.053Z,98331.00
2022-07-26T05:38:34.278Z,98321.16
2022-07-26T05:41:28.065Z,98320.94
2022-07-26T05:44:21.249Z,98319.41
2022-07-26T05:47:17.094Z,98321.72
2022-07-26T05:50:05.573Z,98321.53
2022-07-26T05:52:59.258Z,98327.69
2022-07-26T05:55:46.273Z,98325.22
2022-07-26T05:58:40.053Z,98322.22
2022-07-26T06:01:34.066Z,98326.50
2022-07-26T06:04:21.068Z,98334.72
2022-07-26T06:07:15.174Z,98336.22
2022-07-26T06:10:02.138Z,98336.81
2022-07-26T06:12:55.220Z,98338.69
2022-07-26T06:15:50.078Z,98335.09
2022-07-26T06:18:44.061Z,98325.81
2022-07-26T06:21:31.096Z,98328.44
2022-07-26T06:24:24.034Z,98317.69
2022-07-26T06:27:11.028Z,98316.44
2022-07-26T06:30:04.075Z,98325.94
2022-07-26T06:32:51.039Z,98333.59
2022-07-26T06:35:49.049Z,98334.81
2022-07-26T06:38:36.114Z,98334.03
2022-07-26T06:41:30.241Z,98343.34
2022-07-26T06:44:30.049Z,98332.94
2022-07-26T06:47:17.142Z,98332.56
2022-07-26T06:50:11.117Z,98333.66
2022-07-26T06:53:05.088Z,98339.31
2022-07-26T06:55:52.112Z,98339.41
2022-07-26T06:58:46.275Z,98337.88
2022-07-26T07:01:58.721Z,98336.56
2022-07-26T07:04:47.157Z,98329.28
2022-07-26T07:07:36.677Z,98331.81
2022-07-26T07:10:30.046Z,98331.81
2022-07-26T07:13:17.058Z,98328.66
2022-07-26T07:16:10.105Z,98328.66
2022-07-26T07:18:57.365Z,98319.09
2022-07-26T07:21:51.091Z,98321.63
2022-07-26T07:24:38.484Z,98326.50
2022-07-26T07:27:34.060Z,98323.06
2022-07-26T07:30:21.446Z,98322.00
2022-07-26T07:33:22.233Z,98323.41
2022-07-26T07:36:10.198Z,98316.22
2022-07-26T07:39:06.612Z,98320.41
2022-07-26T07:42:02.072Z,98313.69
2022-07-26T07:45:02.034Z,98306.97
2022-07-26T07:47:49.031Z,98306.06
2022-07-26T07:50:42.061Z,98305.16
2022-07-26T07:53:30.950Z,98300.50
2022-07-26T07:56:25.314Z,98303.28
2022-07-26T07:59:12.965Z,98307.41
2022-07-26T08:02:07.080Z,98296.09
2022-07-26T08:04:55.696Z,98306.91
2022-07-26T08:07:53.046Z,98302.84
2022-07-26T08:10:52.234Z,98290.47
2022-07-26T08:13:41.537Z,98290.72
2022-07-26T08:16:38.273Z,98296.94
2022-07-26T08:19:41.762Z,98296.84
2022-07-26T08:22:29.898Z,98292.13
2022-07-26T08:25:23.039Z,98304.25
2022-07-26T08:28:37.612Z,98289.88
2022-07-26T08:31:24.112Z,98292.06
2022-07-26T08:34:18.069Z,98299.03
2022-07-26T08:37:17.252Z,98298.88
2022-07-26T08:40:13.070Z,98304.41
2022-07-26T08:43:13.036Z,98303.19
2022-07-26T08:46:07.408Z,98305.91
2022-07-26T08:49:03.261Z,98289.38
2022-07-26T08:51:57.096Z,98298.03
2022-07-26T08:54:46.409Z,98278.78
2022-07-26T08:57:40.026Z,98296.03
2022-07-26T09:00:29.787Z,98290.91
2022-07-26T09:03:33.262Z,98286.94
2022-07-26T09:06:31.422Z,98293.91
2022-07-26T09:09:18.547Z,98286.09
2022-07-26T09:12:27.109Z,98290.72
2022-07-26T09:15:27.137Z,98297.69
2022-07-26T09:18:28.798Z,98298.84
2022-07-26T09:21:35.114Z,98296.16
2022-07-26T09:24:43.052Z,98292.03
2022-07-26T09:27:39.424Z,98296.75
2022-07-26T09:30:35.417Z,98302.63
2022-07-26T09:33:29.027Z,98307.31
2022-07-26T09:36:17.366Z,98301.44
2022-07-26T09:39:11.452Z,98296.28
2022-07-26T09:42:25.065Z,98293.94
2022-07-26T09:45:23.052Z,98307.94
2022-07-26T09:48:19.042Z,98295.09
2022-07-26T09:51:07.187Z,98287.31
2022-07-26T09:54:01.003Z,98297.44
2022-07-26T09:56:57.004Z,98297.66
2022-07-26T09:59:44.488Z,98297.56
2022-07-26T10:02:39.024Z,98294.81
2022-07-26T10:05:33.034Z,98301.34
2022-07-26T10:08:26.998Z,98303.31
2022-07-26T10:11:21.085Z,98306.47
2022-07-26T10:14:33.184Z,98305.31
2022-07-26T10:17:41.091Z,98312.72
2022-07-26T10:20:47.748Z,98305.47
2022-07-26T10:26:45.070Z,98313.69
2022-07-26T10:29:32.114Z,98315.34
2022-07-26T10:32:27.001Z,98307.09
2022-07-26T10:35:48.991Z,98310.75
2022-07-26T10:38:44.425Z,98303.94
2022-07-26T10:41:44.994Z,98307.09
2022-07-26T10:44:52.016Z,98307.81
2022-07-26T10:48:18.055Z,98298.03
2022-07-26T10:51:29.687Z,98297.53
2022-07-26T10:54:24.162Z,98307.56
2022-07-26T10:57:11.136Z,98305.31
2022-07-26T11:00:06.017Z,98301.41
2022-07-26T11:02:56.804Z,98299.63
2022-07-26T11:05:51.390Z,98296.81
2022-07-26T11:08:38.460Z,98297.63
2022-07-26T11:11:38.030Z,98307.44
2022-07-26T11:14:33.233Z,98305.91
2022-07-26T11:17:28.666Z,98309.22
2022-07-26T11:20:31.977Z,98302.84
2022-07-26T11:23:23.982Z,98319.19
2022-07-26T11:26:26.005Z,98317.91
2022-07-26T11:29:20.020Z,98314.25
2022-07-26T11:32:25.172Z,98319.00
2022-07-26T11:35:19.024Z,98311.19
2022-07-26T11:38:15.001Z,98308.00
2022-07-26T11:41:02.009Z,98312.56
2022-07-26T11:44:01.921Z,98311.75
2022-07-26T11:46:50.572Z,98309.66
2022-07-26T11:50:00.566Z,98327.69
2022-07-26T11:52:59.060Z,98339.94
2022-07-26T11:55:47.634Z,98333.28
2022-07-26T11:58:41.998Z,98335.59
2022-07-26T12:01:29.317Z,98328.09
2022-07-26T12:04:35.108Z,98325.97
2022-07-26T12:07:29.014Z,98305.81
2022-07-26T12:10:23.210Z,98308.00
2022-07-26T12:13:15.936Z,98316.25
2022-07-26T12:16:10.084Z,98316.31
2022-07-26T12:19:03.999Z,98311.78
2022-07-26T12:21:52.677Z,98296.94
2022-07-26T12:24:48.211Z,98302.94
2022-07-26T12:27:46.079Z,98301.22
2022-07-26T12:30:43.017Z,98293.59
2022-07-26T12:33:37.002Z,98287.88
2022-07-26T12:36:32.125Z,98289.13
2022-07-26T12:39:24.035Z,98293.00
2022-07-26T12:42:33.130Z,98292.25
2022-07-26T12:45:32.204Z,98290.06
2022-07-26T12:48:25.990Z,98304.97
2022-07-26T12:51:13.661Z,98290.97
2022-07-26T12:54:07.067Z,98286.19
2022-07-26T12:56:54.158Z,98299.13
2022-07-26T12:59:49.300Z,98286.88
2022-07-26T13:02:45.169Z,98302.38
2022-07-26T13:05:32.360Z,98303.03
2022-07-26T13:08:26.187Z,98304.41
2022-07-26T13:11:13.499Z,98303.72
2022-07-26T13:14:07.217Z,98313.94
2022-07-26T13:16:54.502Z,98294.22
2022-07-26T13:19:49.157Z,98291.75
2022-07-26T13:22:42.984Z,98292.25
2022-07-26T13:25:39.993Z,98295.75
2022-07-26T13:28:27.683Z,98292.66
2022-07-26T13:31:21.041Z,98292.66
2022-07-26T13:34:15.059Z,98284.97
2022-07-26T13:37:02.137Z,98292.41
2022-07-26T13:40:02.233Z,98284.91
2022-07-26T13:42:57.142Z,98286.91
2022-07-26T13:45:51.338Z,98292.56
2022-07-26T13:49:00.064Z,98290.16
2022-07-26T13:51:57.422Z,98287.00
2022-07-26T13:54:51.195Z,98283.09
2022-07-26T13:57:55.663Z,98264.47
2022-07-26T14:00:51.229Z,98272.19
2022-07-26T14:03:38.910Z,98279.97
2022-07-26T14:06:34.967Z,98281.09
2022-07-26T14:09:29.092Z,98281.00
2022-07-26T14:12:16.424Z,98273.94
2022-07-26T14:15:15.143Z,98269.78
2022-07-26T14:18:04.502Z,98275.59
2022-07-26T14:20:58.056Z,98269.16
2022-07-26T14:23:51.979Z,98267.13
2022-07-26T14:26:38.994Z,98250.44
2022-07-26T14:29:32.977Z,98266.50
2022-07-26T14:32:21.986Z,98263.72
2022-07-26T14:35:19.998Z,98259.25
2022-07-26T14:38:17.022Z,98258.81
2022-07-26T14:41:10.754Z,98258.47
2022-07-26T14:44:04.007Z,98262.22
2022-07-26T14:46:51.018Z,98264.44
2022-07-26T14:49:45.091Z,98258.00
2022-07-26T14:52:32.125Z,98250.91
2022-07-26T14:55:25.955Z,98251.94
2022-07-26T14:58:18.978Z,98259.22
2022-07-26T15:01:06.070Z,98260.72
2022-07-26T15:04:01.173Z,98249.88
2022-07-26T15:06:55.181Z,98256.47
2022-07-26T15:09:42.257Z,98253.88
2022-07-26T15:12:35.970Z,98246.28
2022-07-26T15:15:24.225Z,98248.88
2022-07-26T15:18:18.001Z,98242.28
2022-07-26T15:21:05.366Z,98230.09
2022-07-26T15:23:58.995Z,98228.03
2022-07-26T15:26:52.967Z,98225.75
2022-07-26T15:29:46.984Z,98223.06
2022-07-26T15:32:40.976Z,98218.72
2022-07-26T15:35:35.953Z,98224.38
2022-07-26T15:38:29.964Z,98214.00
2022-07-26T15:41:23.956Z,98221.16
2022-07-26T15:44:32.961Z,98209.09
2022-07-26T15:47:53.302Z,98218.91
2022-07-26T15:50:40.012Z,98209.41
2022-07-26T15:53:29.154Z,98223.00
2022-07-26T15:56:22.997Z,98215.78
2022-07-26T15:59:10.028Z,98219.91
2022-07-26T16:02:04.037Z,98219.91
2022-07-26T16:04:57.978Z,98210.16
2022-07-26T16:07:52.959Z,98217.25
2022-07-26T16:10:46.961Z,98214.81
2022-07-26T16:13:41.070Z,98215.53
2022-07-26T16:16:28.963Z,98197.91
2022-07-26T16:19:23.001Z,98202.03
2022-07-26T16:22:16.996Z,98211.78
2022-07-26T16:25:05.958Z,98208.03
2022-07-26T16:28:00.006Z,98209.28
2022-07-26T16:30:47.217Z,98202.81
2022-07-26T16:33:45.960Z,98204.25
2022-07-26T16:36:33.635Z,98205.88
2022-07-26T16:39:26.981Z,98198.56
2022-07-26T16:42:21.134Z,98197.00
2022-07-26T16:45:21.055Z,98209.66
2022-07-26T16:48:14.260Z,98198.72
2022-07-26T16:51:08.059Z,98201.81
2022-07-26T16:53:58.884Z,98207.63
2022-07-26T16:56:52.965Z,98205.16
2022-07-26T16:59:47.066Z,98209.63
2022-07-26T17:02:41.079Z,98213.91
2022-07-26T17:07:22.105Z,98208.28
2022-07-26T17:09:41.466Z,98210.75
2022-07-26T17:12:14.856Z,98207.91
2022-07-26T17:14:48.709Z,98216.22
2022-07-26T17:17:15.490Z,98210.50
2022-07-26T17:19:42.200Z,98203.25
2022-07-26T17:22:15.743Z,98204.03
2022-07-26T17:24:48.695Z,98196.47
2022-07-26T17:27:16.572Z,98199.75
2022-07-26T17:29:49.734Z,98205.25
2022-07-26T17:32:16.546Z,98204.28
2022-07-26T17:34:49.743Z,98214.41
2022-07-26T17:37:16.737Z,98202.09
2022-07-26T17:39:54.761Z,98200.75
2022-07-26T17:42:24.321Z,98204.78
2022-07-26T17:44:57.726Z,98198.28
2022-07-26T17:47:29.384Z,98205.59
2022-07-26T17:52:55.598Z,98207.84
2022-07-26T17:55:29.730Z,98216.78
2022-07-26T17:57:56.458Z,98209.13
2022-07-26T18:00:30.726Z,98213.00
2022-07-26T18:02:57.989Z,98217.00
2022-07-26T18:05:41.224Z,98218.00
2022-07-26T18:08:14.806Z,98220.16
2022-07-26T18:10:51.016Z,98212.13
2022-07-26T18:13:18.247Z,98211.22
2022-07-26T18:15:51.739Z,98219.84
2022-07-26T18:18:25.693Z,98217.38
2022-07-26T18:20:59.709Z,98205.16
2022-07-26T18:23:26.748Z,98209.22
2022-07-26T18:26:00.696Z,98204.72
2022-07-26T18:28:27.358Z,98203.22
2022-07-26T18:31:00.765Z,98209.41
2022-07-26T18:33:34.709Z,98215.22
2022-07-26T18:36:01.646Z,98222.78
2022-07-26T18:38:34.715Z,98223.75
2022-07-26T18:41:01.401Z,98213.88
2022-07-26T18:43:35.728Z,98216.69
2022-07-26T18:46:08.722Z,98220.34
2022-07-26T18:48:35.698Z,98221.78
2022-07-26T18:51:09.675Z,98223.69
2022-07-26T18:53:44.713Z,98227.34
2022-07-26T18:56:11.423Z,98231.25
2022-07-26T18:58:44.708Z,98239.59
2022-07-26T19:01:11.785Z,98241.72
2022-07-26T19:03:45.766Z,98242.19
2022-07-26T19:06:32.797Z,98243.72
2022-07-26T19:09:06.705Z,98244.28
2022-07-26T19:11:39.739Z,98243.13
2022-07-26T19:14:12.704Z,98242.78
2022-07-26T19:16:46.695Z,98255.34
2022-07-26T19:19:13.760Z,98256.91
2022-07-26T19:21:51.687Z,98247.97
2022-07-26T19:24:20.045Z,98257.13
2022-07-26T19:26:55.745Z,98249.94
2022-07-26T19:29:22.961Z,98251.03
2022-07-26T19:31:57.092Z,98249.81
2022-07-26T19:34:30.896Z,98262.19
2022-07-26T19:37:03.691Z,98254.06
2022-07-26T19:39:36.698Z,98261.72
2022-07-26T19:42:09.756Z,98261.13
2022-07-26T19:44:36.497Z,98262.88
2022-07-26T19:47:10.105Z,98265.94
2022-07-26T19:49:36.860Z,98266.28
2022-07-26T19:52:11.849Z,98257.94
2022-07-26T19:54:38.982Z,98259.00
2022-07-26T19:57:13.904Z,98263.34
2022-07-26T19:59:40.628Z,98262.28
2022-07-26T20:02:14.950Z,98268.75
2022-07-26T20:05:01.681Z,98266.41
2022-07-26T20:07:28.713Z,98271.22
2022-07-26T20:10:02.128Z,98268.28
2022-07-26T20:12:29.047Z,98269.69
2022-07-26T20:15:02.661Z,98266.41
2022-07-26T20:17:41.674Z,98260.06
2022-07-26T20:20:15.690Z,98259.69
2022-07-26T20:22:42.374Z,98268.66
2022-07-26T20:25:21.373Z,98269.34
2022-07-26T20:27:51.374Z,98273.13
2022-07-26T20:30:24.890Z,98281.00
2022-07-26T20:32:51.656Z,98286.19
2022-07-26T20:35:24.686Z,98287.09
2022-07-26T20:37:51.419Z,98288.16
2022-07-26T20:40:24.682Z,98284.41
2022-07-26T20:42:51.624Z,98287.09
2022-07-26T20:45:24.673Z,98293.91
2022-07-26T20:47:55.062Z,98297.22
2022-07-26T20:50:29.826Z,98292.28
2022-07-26T20:52:56.677Z,98290.88
2022-07-26T20:55:24.236Z,98293.91
2022-07-26T20:57:57.701Z,98284.03
2022-07-26T21:00:26.189Z,98271.81
2022-07-26T21:03:04.876Z,98279.13
2022-07-26T21:05:38.547Z,98284.75
2022-07-26T21:08:11.755Z,98289.56
2022-07-26T21:10:45.744Z,98281.47
2022-07-26T21:13:12.431Z,98292.28
2022-07-26T21:15:45.771Z,98285.22
2022-07-26T21:18:12.475Z,98288.16
2022-07-26T21:20:46.658Z,98288.63
2022-07-26T21:23:17.809Z,98297.63
2022-07-26T21:25:57.922Z,98286.09
2022-07-26T21:28:27.212Z,98296.03
2022-07-26T21:31:00.796Z,98286.28
2022-07-26T21:33:34.693Z,98298.25
2022-07-26T21:36:07.665Z,98295.31
2022-07-26T21:38:40.921Z,98296.38
2022-07-26T21:41:07.797Z,98302.09
2022-07-26T21:43:41.673Z,98296.69
2022-07-26T21:46:12.646Z,98300.44
2022-07-26T21:48:46.890Z,98302.56
2022-07-26T21:51:13.687Z,98297.84
2022-07-26T21:53:46.715Z,98308.19
2022-07-26T21:56:13.674Z,98299.97
2022-07-26T21:58:40.492Z,98293.78
2022-07-26T22:01:18.746Z,98304.84
2022-07-26T22:03:45.591Z,98296.63
2022-07-26T22:06:25.720Z,98295.13
2022-07-26T22:08:52.531Z,98298.06
2022-07-26T22:11:19.508Z,98302.41
2022-07-26T22:13:53.842Z,98299.47
2022-07-26T22:16:21.165Z,98298.28
2022-07-26T22:18:54.635Z,98300.41
2022-07-26T22:21:21.592Z,98304.72
2022-07-26T22:23:54.664Z,98310.97
2022-07-26T22:26:26.204Z,98301.44
2022-07-26T22:28:59.666Z,98298.63
2022-07-26T22:31:26.621Z,98301.53
2022-07-26T22:33:59.839Z,98299.31
2022-07-26T22:36:32.651Z,98295.66
2022-07-26T22:38:59.424Z,98298.72
2022-07-26T22:41:26.265Z,98293.09
2022-07-26T22:44:05.654Z,98292.50
2022-07-26T22:46:38.884Z,98291.91
2022-07-26T22:49:05.722Z,98285.34
2022-07-26T22:51:45.855Z,98283.94
2022-07-26T22:54:12.769Z,98282.28
2022-07-26T22:56:46.661Z,98274.03
2022-07-26T22:59:13.762Z,98275.53
2022-07-26T23:01:47.712Z,98276.69
2022-07-26T23:04:14.908Z,98272.25
2022-07-26T23:06:55.655Z,98275.72
2022-07-26T23:09:25.581Z,98281.88
2022-07-26T23:11:58.661Z,98281.13
2022-07-26T23:14:25.432Z,98285.13
2022-07-26T23:16:59.865Z,98289.88
2022-07-26T23:19:26.748Z,98288.00
2022-07-26T23:21:59.642Z,98293.16
2022-07-26T23:24:26.637Z,98286.88
2022-07-26T23:26:59.667Z,98282.69
2022-07-26T23:29:26.404Z,98288.47
2022-07-26T23:31:53.374Z,98296.41
2022-07-26T23:34:26.652Z,98287.22
2022-07-26T23:36:53.397Z,98280.19
2022-07-26T23:39:26.658Z,98274.88
2022-07-26T23:41:59.682Z,98267.84
2022-07-26T23:44:32.651Z,98272.50
2022-07-26T23:47:06.687Z,98273.78
2022-07-26T23:49:33.706Z,98268.81
2022-07-26T23:52:06.673Z,98268.22
2022-07-26T23:54:39.717Z,98265.13
2022-07-26T23:57:12.828Z,98270.53
2022-07-26T23:59:39.515Z,98286.72
